Terminal Aerodrome Forecast
Issued by NWS Tampa Bay Area, FL

Home | Current Version | Previous Version | Text Only | Print | Product List | Glossary On
Versions: 1 2 3 4 5 6 7 8 9 10 11 12 13 14 15 16
000
FTUS42 KTBW 282327
TAFFMY
TAF
KFMY 282327Z 2900/2924 08010KT P6SM VCSH SCT035 BKN080
     FM290300 09007KT P6SM SCT070 BKN110
     FM291500 10010G15KT P6SM VCTS SCT030CB BKN080
     FM291800 12010KT P6SM VCTS SCT035CB BKN080=

USA.gov is the U.S. government's official web portal to all federal, state and local government web resources and services.